Time;durP1;ratioP1;P1;durP2;ratioP2;P2;SDS_P1;SDS_P2;PMS_P1;PMS_P2;Temp;Humidity;BMP_temperature;BMP_pressure;BME280_temperature;BME280_humidity;BME280_pressure;Samples;Min_cycle;Max_cycle;Signal;HPM_P1;HPM_P2
2022/04/09 00:00:17;;;;;;;14.88;1.83;;;;;;;;;;5044334;28;20053;-72
2022/04/09 00:02:44;;;;;;;10.63;1.63;;;;;;;;;;5042768;28;20065;-72
2022/04/09 00:05:12;;;;;;;9.82;2.20;;;;;;;;;;5041494;28;20045;-72
2022/04/09 00:07:40;;;;;;;8.25;1.63;;;;;;;;;;5039916;28;20063;-72
2022/04/09 00:10:08;;;;;;;13.25;1.75;;;;;;;;;;5043334;28;20048;-72
2022/04/09 00:12:37;;;;;;;12.02;1.67;;;;;;;;;;5039099;28;20111;-72
2022/04/09 00:15:04;;;;;;;14.85;1.50;;;;;;;;;;5038994;28;20053;-72
2022/04/09 00:17:37;;;;;;;16.70;1.90;;;;;;;;;;5044845;28;20056;-72
2022/04/09 00:20:04;;;;;;;9.83;1.57;;;;;;;;;;5037998;28;20577;-72
2022/04/09 00:22:32;;;;;;;9.65;1.70;;;;;;;;;;5037339;28;20048;-72
2022/04/09 00:24:59;;;;;;;11.20;1.63;;;;;;;;;;5042442;28;20137;-72
2022/04/09 00:27:26;;;;;;;8.52;1.88;;;;;;;;;;5043405;28;20045;-72
2022/04/09 00:29:55;;;;;;;9.18;1.00;;;;;;;;;;5038015;28;20053;-72
2022/04/09 00:32:22;;;;;;;8.65;1.23;;;;;;;;;;5042259;28;20890;-72
2022/04/09 00:34:49;;;;;;;4.40;0.75;;;;;;;;;;5035921;28;20048;-72
2022/04/09 00:37:16;;;;;;;10.00;1.27;;;;;;;;;;5044297;28;20429;-72
2022/04/09 00:39:44;;;;;;;7.50;1.00;;;;;;;;;;5042942;28;20073;-72
2022/04/09 00:42:14;;;;;;;4.82;1.00;;;;;;;;;;5042605;28;20468;-72
2022/04/09 00:44:41;;;;;;;10.07;1.20;;;;;;;;;;5037330;28;20115;-72
2022/04/09 00:47:10;;;;;;;9.38;1.25;;;;;;;;;;5041645;28;20048;-72
2022/04/09 00:49:38;;;;;;;9.52;0.88;;;;;;;;;;5037504;28;20173;-72
2022/04/09 00:52:06;;;;;;;10.02;1.30;;;;;;;;;;5044858;28;20049;-72
2022/04/09 00:54:34;;;;;;;11.77;1.25;;;;;;;;;;5038021;28;20770;-72
2022/04/09 00:57:05;;;;;;;10.95;1.30;;;;;;;;;;5037342;28;20076;-72
2022/04/09 00:59:33;;;;;;;10.70;1.75;;;;;;;;;;5042393;28;20427;-72
2022/04/09 01:02:00;;;;;;;9.65;1.25;;;;;;;;;;5041942;28;20051;-71
2022/04/09 01:04:29;;;;;;;16.05;1.80;;;;;;;;;;5042617;28;20056;-70
2022/04/09 01:06:56;;;;;;;14.48;2.10;;;;;;;;;;5041516;28;20068;-70
2022/04/09 01:09:24;;;;;;;17.58;2.22;;;;;;;;;;5041870;28;20045;-70
2022/04/09 01:11:51;;;;;;;13.00;1.50;;;;;;;;;;5041204;28;20060;-70
2022/04/09 01:14:19;;;;;;;15.48;1.42;;;;;;;;;;5039180;28;20037;-70
2022/04/09 01:16:46;;;;;;;16.00;1.30;;;;;;;;;;5041702;28;20049;-70
2022/04/09 01:19:14;;;;;;;15.38;1.65;;;;;;;;;;5044262;28;20045;-70
2022/04/09 01:21:42;;;;;;;14.07;1.83;;;;;;;;;;5037663;28;20049;-70
2022/04/09 01:24:11;;;;;;;14.75;1.70;;;;;;;;;;5037636;28;20526;-70
2022/04/09 01:26:39;;;;;;;11.93;1.83;;;;;;;;;;5042477;28;20053;-70
2022/04/09 01:29:07;;;;;;;14.73;1.40;;;;;;;;;;5037761;28;20470;-70
2022/04/09 01:31:34;;;;;;;14.15;1.42;;;;;;;;;;5040658;28;20056;-70
2022/04/09 01:34:01;;;;;;;11.23;1.20;;;;;;;;;;5032463;28;20064;-70
2022/04/09 01:36:28;;;;;;;12.32;1.38;;;;;;;;;;5042405;28;20082;-70
2022/04/09 01:38:56;;;;;;;9.38;1.17;;;;;;;;;;5034638;28;20061;-70
2022/04/09 01:41:24;;;;;;;14.32;1.52;;;;;;;;;;5037276;28;20065;-70
2022/04/09 01:43:51;;;;;;;9.75;1.27;;;;;;;;;;5036218;28;20049;-70
2022/04/09 01:46:18;;;;;;;14.60;1.10;;;;;;;;;;5036984;28;20053;-70
2022/04/09 01:48:46;;;;;;;15.55;1.92;;;;;;;;;;5041550;28;20407;-70
2022/04/09 01:51:13;;;;;;;12.88;1.52;;;;;;;;;;5043804;28;20064;-70
2022/04/09 01:53:40;;;;;;;12.35;1.50;;;;;;;;;;5037947;28;20807;-70
2022/04/09 01:56:07;;;;;;;11.43;1.45;;;;;;;;;;5043899;28;20057;-70
2022/04/09 01:58:36;;;;;;;7.65;1.15;;;;;;;;;;5038946;28;20092;-70
2022/04/09 02:01:03;;;;;;;8.43;1.27;;;;;;;;;;5040687;28;20052;-70
2022/04/09 02:03:31;;;;;;;10.98;1.33;;;;;;;;;;5037791;28;20068;-70
2022/04/09 02:05:59;;;;;;;12.10;1.50;;;;;;;;;;5037838;28;20053;-71
2022/04/09 02:08:26;;;;;;;13.95;2.13;;;;;;;;;;5040047;28;20049;-71
2022/04/09 02:10:54;;;;;;;10.52;1.48;;;;;;;;;;5041486;28;20064;-71
2022/04/09 02:13:21;;;;;;;12.80;1.50;;;;;;;;;;5039174;28;20049;-70
2022/04/09 02:15:49;;;;;;;10.52;1.60;;;;;;;;;;5042082;28;20065;-70
2022/04/09 02:18:17;;;;;;;11.02;1.33;;;;;;;;;;5041312;28;20053;-70
2022/04/09 02:20:44;;;;;;;12.93;1.77;;;;;;;;;;5042779;28;20057;-70
2022/04/09 02:23:11;;;;;;;10.52;1.40;;;;;;;;;;5032854;28;20045;-70
2022/04/09 02:25:38;;;;;;;11.13;1.80;;;;;;;;;;5036471;28;20078;-70
2022/04/09 02:28:06;;;;;;;13.57;1.92;;;;;;;;;;5036218;28;20114;-70
2022/04/09 02:30:33;;;;;;;11.80;1.67;;;;;;;;;;5038533;28;20114;-70
2022/04/09 02:33:01;;;;;;;9.65;1.63;;;;;;;;;;5036521;28;20102;-70
2022/04/09 02:35:29;;;;;;;11.63;1.52;;;;;;;;;;5038029;28;20052;-70
2022/04/09 02:37:57;;;;;;;18.73;2.00;;;;;;;;;;5034352;28;20053;-70
2022/04/09 02:40:25;;;;;;;15.63;2.45;;;;;;;;;;5041269;28;20053;-70
2022/04/09 02:42:52;;;;;;;12.00;1.95;;;;;;;;;;5041205;28;20057;-70
2022/04/09 02:45:20;;;;;;;16.90;1.92;;;;;;;;;;5043349;28;20578;-70
2022/04/09 02:47:47;;;;;;;21.73;2.25;;;;;;;;;;5046324;28;20102;-70
2022/04/09 02:50:16;;;;;;;19.08;1.75;;;;;;;;;;5048351;28;20061;-70
2022/04/09 02:52:43;;;;;;;10.50;1.30;;;;;;;;;;5041406;28;20136;-70
2022/04/09 02:55:11;;;;;;;9.70;1.40;;;;;;;;;;5042857;28;20064;-70
2022/04/09 02:57:39;;;;;;;16.35;1.80;;;;;;;;;;5047043;28;20148;-70
2022/04/09 03:00:08;;;;;;;16.77;1.70;;;;;;;;;;5039897;28;20088;-70
2022/04/09 03:02:37;;;;;;;14.43;1.60;;;;;;;;;;5047202;28;20514;-70
2022/04/09 03:05:04;;;;;;;16.30;1.95;;;;;;;;;;5038567;28;20588;-70
2022/04/09 03:07:33;;;;;;;15.80;1.73;;;;;;;;;;5043155;28;20526;-70
2022/04/09 03:10:00;;;;;;;13.40;1.65;;;;;;;;;;5039356;28;20053;-70
2022/04/09 03:12:28;;;;;;;11.32;1.30;;;;;;;;;;5043200;28;20057;-70
2022/04/09 03:14:55;;;;;;;11.57;1.50;;;;;;;;;;5044840;28;20056;-70
2022/04/09 03:17:22;;;;;;;15.57;1.85;;;;;;;;;;5041820;28;20057;-70
2022/04/09 03:19:49;;;;;;;16.52;2.28;;;;;;;;;;5047504;28;20065;-70
2022/04/09 03:22:16;;;;;;;16.63;2.08;;;;;;;;;;5047717;28;20047;-70
2022/04/09 03:24:45;;;;;;;13.90;1.75;;;;;;;;;;5041671;28;20057;-70
2022/04/09 03:27:12;;;;;;;18.98;1.90;;;;;;;;;;5043987;28;20052;-70
2022/04/09 03:29:39;;;;;;;17.55;1.83;;;;;;;;;;5042328;28;20473;-70
2022/04/09 03:32:07;;;;;;;24.92;2.72;;;;;;;;;;5043706;28;20080;-70
2022/04/09 03:34:35;;;;;;;17.70;2.42;;;;;;;;;;5043726;28;20139;-70
2022/04/09 03:37:02;;;;;;;10.05;1.38;;;;;;;;;;5042393;28;20060;-70
2022/04/09 03:39:29;;;;;;;16.00;1.30;;;;;;;;;;5043711;28;20049;-70
2022/04/09 03:41:58;;;;;;;11.52;1.85;;;;;;;;;;5038686;28;20053;-70
2022/04/09 03:44:25;;;;;;;11.13;1.20;;;;;;;;;;5047375;28;20107;-70
2022/04/09 03:46:58;;;;;;;11.65;1.23;;;;;;;;;;5047104;28;20826;-70
2022/04/09 03:49:25;;;;;;;11.77;1.30;;;;;;;;;;5047563;28;20102;-70
2022/04/09 03:51:52;;;;;;;11.13;1.58;;;;;;;;;;5047829;28;20110;-70
2022/04/09 03:54:19;;;;;;;10.05;1.40;;;;;;;;;;5036392;28;20049;-70
2022/04/09 03:56:47;;;;;;;13.73;1.20;;;;;;;;;;5043542;28;20053;-70
2022/04/09 03:59:15;;;;;;;12.73;1.30;;;;;;;;;;5043440;28;20053;-70
2022/04/09 04:01:44;;;;;;;10.30;1.30;;;;;;;;;;5046108;28;20076;-70
2022/04/09 04:04:11;;;;;;;14.77;1.30;;;;;;;;;;5043312;28;20048;-70
2022/04/09 04:06:38;;;;;;;19.00;2.47;;;;;;;;;;5051914;28;20399;-70
2022/04/09 04:09:06;;;;;;;21.70;2.65;;;;;;;;;;5042799;28;20060;-70
2022/04/09 04:11:34;;;;;;;16.40;2.00;;;;;;;;;;5041961;28;20064;-70
2022/04/09 04:14:01;;;;;;;23.42;2.60;;;;;;;;;;5042827;28;20055;-70
2022/04/09 04:16:29;;;;;;;8.77;1.85;;;;;;;;;;5038138;28;20534;-70
2022/04/09 04:18:57;;;;;;;12.23;1.88;;;;;;;;;;5043249;28;20065;-70
2022/04/09 04:21:24;;;;;;;12.52;1.52;;;;;;;;;;5046278;28;20056;-70
2022/04/09 04:23:51;;;;;;;18.80;1.83;;;;;;;;;;5044957;28;20111;-70
2022/04/09 04:26:18;;;;;;;10.90;1.30;;;;;;;;;;5047034;28;20045;-70
2022/04/09 04:28:48;;;;;;;18.27;1.67;;;;;;;;;;5045700;28;20057;-70
2022/04/09 04:31:15;;;;;;;14.88;1.88;;;;;;;;;;5043071;28;20148;-70
2022/04/09 04:33:44;;;;;;;14.70;1.67;;;;;;;;;;5044319;28;20102;-70
2022/04/09 04:36:11;;;;;;;14.60;1.73;;;;;;;;;;5037813;28;20096;-70
2022/04/09 04:38:38;;;;;;;13.80;1.60;;;;;;;;;;5047451;28;20392;-70
2022/04/09 04:41:05;;;;;;;8.13;1.50;;;;;;;;;;5046554;28;20060;-70
2022/04/09 04:43:32;;;;;;;9.93;1.30;;;;;;;;;;5045233;28;20479;-70
2022/04/09 04:46:00;;;;;;;12.52;1.55;;;;;;;;;;5041297;28;20067;-70
2022/04/09 04:48:27;;;;;;;15.38;1.95;;;;;;;;;;5036552;28;20045;-70
2022/04/09 04:50:55;;;;;;;16.67;1.92;;;;;;;;;;5041275;28;20045;-70
2022/04/09 04:53:23;;;;;;;19.48;2.38;;;;;;;;;;5040318;28;20045;-70
2022/04/09 04:55:50;;;;;;;16.88;1.75;;;;;;;;;;5041081;28;20061;-70
2022/04/09 04:58:19;;;;;;;13.75;2.33;;;;;;;;;;5041976;28;20060;-70
2022/04/09 05:00:46;;;;;;;16.75;1.65;;;;;;;;;;5037163;28;20053;-70
2022/04/09 05:03:15;;;;;;;22.50;3.28;;;;;;;;;;5043613;28;20133;-70
2022/04/09 05:05:42;;;;;;;20.30;2.60;;;;;;;;;;5038329;28;20103;-70
2022/04/09 05:08:11;;;;;;;16.67;2.20;;;;;;;;;;5044754;28;20156;-70
2022/04/09 05:10:38;;;;;;;15.90;2.17;;;;;;;;;;5036524;28;20110;-70
2022/04/09 05:13:05;;;;;;;14.73;2.28;;;;;;;;;;5039742;28;20458;-70
2022/04/09 05:15:32;;;;;;;16.77;1.88;;;;;;;;;;5041450;28;20071;-70
2022/04/09 05:18:02;;;;;;;14.00;2.05;;;;;;;;;;5039979;28;20495;-70
2022/04/09 05:20:30;;;;;;;14.75;1.98;;;;;;;;;;5037002;28;20404;-70
2022/04/09 05:22:57;;;;;;;14.25;1.77;;;;;;;;;;5039759;28;20074;-70
2022/04/09 05:25:26;;;;;;;13.77;2.40;;;;;;;;;;5034973;28;20048;-70
2022/04/09 05:27:53;;;;;;;20.10;2.08;;;;;;;;;;5040789;28;20451;-70
2022/04/09 05:30:22;;;;;;;17.80;3.25;;;;;;;;;;5044872;28;20045;-70
2022/04/09 05:32:49;;;;;;;17.67;2.08;;;;;;;;;;5047028;28;20667;-70
2022/04/09 05:35:16;;;;;;;18.17;2.13;;;;;;;;;;5036971;28;20179;-70
2022/04/09 05:37:45;;;;;;;20.88;2.20;;;;;;;;;;5034392;28;20112;-70
2022/04/09 05:40:13;;;;;;;19.33;2.30;;;;;;;;;;5037285;28;20173;-70
2022/04/09 05:42:42;;;;;;;19.17;1.88;;;;;;;;;;5042331;28;20058;-70
2022/04/09 05:45:09;;;;;;;17.75;2.35;;;;;;;;;;5035283;28;20068;-70
2022/04/09 05:47:40;;;;;;;18.48;2.10;;;;;;;;;;5041991;28;20495;-70
2022/04/09 05:50:08;;;;;;;13.40;2.40;;;;;;;;;;5043358;28;20067;-71
2022/04/09 05:52:35;;;;;;;16.92;2.15;;;;;;;;;;5040406;28;20071;-70
2022/04/09 05:55:03;;;;;;;16.05;2.13;;;;;;;;;;5043347;28;20102;-70
2022/04/09 05:57:30;;;;;;;19.98;2.90;;;;;;;;;;5042478;28;20595;-70
2022/04/09 05:59:59;;;;;;;13.15;2.22;;;;;;;;;;5050507;28;20060;-70
2022/04/09 06:02:27;;;;;;;7.70;1.10;;;;;;;;;;5043126;28;20053;-70
2022/04/09 06:04:54;;;;;;;7.05;1.13;;;;;;;;;;5042312;28;20051;-70
2022/04/09 06:07:22;;;;;;;8.20;1.38;;;;;;;;;;5039931;28;20056;-70
2022/04/09 06:09:50;;;;;;;11.75;1.90;;;;;;;;;;5043075;28;20168;-70
2022/04/09 06:12:17;;;;;;;11.35;1.73;;;;;;;;;;5038788;28;20061;-70
2022/04/09 06:14:45;;;;;;;11.88;1.90;;;;;;;;;;5041513;28;20670;-70
2022/04/09 06:17:13;;;;;;;15.27;1.70;;;;;;;;;;5037249;28;20057;-70
2022/04/09 06:19:40;;;;;;;11.50;1.80;;;;;;;;;;5042365;28;20052;-70
2022/04/09 06:22:08;;;;;;;9.93;1.73;;;;;;;;;;5042403;28;20056;-70
2022/04/09 06:24:35;;;;;;;16.88;1.83;;;;;;;;;;5044837;28;20557;-70
2022/04/09 06:27:02;;;;;;;8.43;1.40;;;;;;;;;;5042594;28;20048;-70
2022/04/09 06:29:29;;;;;;;6.03;0.80;;;;;;;;;;5046344;28;20053;-70
2022/04/09 06:31:56;;;;;;;9.75;1.02;;;;;;;;;;5046136;28;20541;-70
2022/04/09 06:34:25;;;;;;;3.53;0.70;;;;;;;;;;5044015;28;20059;-70
2022/04/09 06:36:53;;;;;;;8.50;1.10;;;;;;;;;;5045321;28;20045;-70
2022/04/09 06:39:20;;;;;;;7.75;1.20;;;;;;;;;;5051312;28;20747;-70
2022/04/09 06:41:48;;;;;;;12.82;1.38;;;;;;;;;;5043154;28;20056;-70
2022/04/09 06:44:16;;;;;;;13.20;1.40;;;;;;;;;;5039177;28;20134;-70
2022/04/09 06:46:43;;;;;;;10.45;1.52;;;;;;;;;;5043434;28;20045;-70
2022/04/09 06:49:11;;;;;;;14.18;1.73;;;;;;;;;;5044256;28;20068;-70
2022/04/09 06:51:40;;;;;;;15.07;1.75;;;;;;;;;;5048399;28;20053;-70
2022/04/09 06:54:07;;;;;;;15.77;2.03;;;;;;;;;;5044856;28;20053;-70
2022/04/09 06:56:36;;;;;;;16.58;1.98;;;;;;;;;;5044655;28;20050;-70
2022/04/09 06:59:04;;;;;;;22.85;2.53;;;;;;;;;;5043660;28;20107;-70
2022/04/09 07:01:31;;;;;;;18.13;2.00;;;;;;;;;;5039699;28;20057;-70
2022/04/09 07:04:00;;;;;;;16.60;2.33;;;;;;;;;;5039000;28;20064;-70
2022/04/09 07:06:28;;;;;;;13.75;2.15;;;;;;;;;;5044436;28;20391;-70
2022/04/09 07:08:57;;;;;;;12.07;1.80;;;;;;;;;;5046081;28;20415;-70
2022/04/09 07:11:24;;;;;;;18.75;1.95;;;;;;;;;;5042287;28;20049;-70
2022/04/09 07:13:51;;;;;;;11.80;2.15;;;;;;;;;;5042751;28;20097;-71
2022/04/09 07:16:18;;;;;;;16.00;2.30;;;;;;;;;;5044824;28;20448;-71
2022/04/09 07:18:46;;;;;;;18.48;2.20;;;;;;;;;;5041984;28;20068;-71
2022/04/09 07:21:13;;;;;;;13.52;1.80;;;;;;;;;;5045102;28;20053;-71
2022/04/09 07:23:40;;;;;;;15.02;1.80;;;;;;;;;;5042045;28;20102;-70
2022/04/09 07:26:09;;;;;;;12.25;1.60;;;;;;;;;;5038525;28;20055;-70
2022/04/09 07:28:36;;;;;;;9.88;1.27;;;;;;;;;;5047313;28;20056;-70
2022/04/09 07:31:03;;;;;;;11.75;1.73;;;;;;;;;;5043413;28;20505;-70
2022/04/09 07:33:30;;;;;;;11.30;2.10;;;;;;;;;;5048554;28;20052;-69
2022/04/09 07:35:58;;;;;;;10.75;1.40;;;;;;;;;;5038819;28;20571;-69
2022/04/09 07:38:25;;;;;;;11.07;2.03;;;;;;;;;;5049469;28;20063;-69
2022/04/09 07:40:54;;;;;;;10.30;1.50;;;;;;;;;;5043810;28;20048;-70
2022/04/09 07:43:22;;;;;;;9.73;1.50;;;;;;;;;;5046851;28;20122;-70
2022/04/09 07:45:49;;;;;;;12.68;1.75;;;;;;;;;;5044456;28;20126;-70
2022/04/09 07:48:17;;;;;;;8.27;1.25;;;;;;;;;;5046671;28;20057;-70
2022/04/09 07:50:44;;;;;;;8.73;1.95;;;;;;;;;;5050210;28;20547;-72
2022/04/09 07:53:12;;;;;;;9.25;1.52;;;;;;;;;;5046115;28;20057;-71
2022/04/09 07:55:39;;;;;;;15.05;2.03;;;;;;;;;;5036443;28;20041;-71
2022/04/09 07:58:08;;;;;;;8.73;1.35;;;;;;;;;;5041211;28;20061;-71
2022/04/09 08:00:37;;;;;;;13.65;1.63;;;;;;;;;;5042494;28;20052;-71
2022/04/09 08:03:05;;;;;;;15.70;1.83;;;;;;;;;;5042775;28;20155;-72
2022/04/09 08:05:32;;;;;;;16.70;2.22;;;;;;;;;;5039314;28;20079;-71
2022/04/09 08:08:00;;;;;;;25.48;3.22;;;;;;;;;;5045262;28;20060;-71
2022/04/09 08:10:28;;;;;;;11.25;2.03;;;;;;;;;;5044727;28;20123;-71
2022/04/09 08:12:56;;;;;;;15.43;2.55;;;;;;;;;;5045418;28;20057;-71
2022/04/09 08:15:24;;;;;;;16.65;2.20;;;;;;;;;;5042048;28;20061;-71
2022/04/09 08:17:54;;;;;;;16.02;2.10;;;;;;;;;;5042734;28;20091;-72
2022/04/09 08:20:22;;;;;;;14.93;1.90;;;;;;;;;;5041980;28;20052;-70
2022/04/09 08:22:49;;;;;;;24.58;2.92;;;;;;;;;;5042351;28;20056;-70
2022/04/09 08:25:16;;;;;;;12.13;2.17;;;;;;;;;;5041844;28;20045;-70
2022/04/09 08:27:45;;;;;;;13.57;1.98;;;;;;;;;;5043384;28;20111;-71
2022/04/09 08:30:14;;;;;;;11.18;1.70;;;;;;;;;;5045090;28;20048;-72
2022/04/09 08:32:41;;;;;;;12.60;1.77;;;;;;;;;;5044675;28;20450;-72
2022/04/09 08:35:10;;;;;;;10.85;1.98;;;;;;;;;;5045272;28;20052;-72
2022/04/09 08:37:38;;;;;;;14.65;1.88;;;;;;;;;;5040650;28;20045;-71
2022/04/09 08:40:05;;;;;;;17.63;1.90;;;;;;;;;;5039441;28;20077;-72
2022/04/09 08:42:33;;;;;;;15.13;2.05;;;;;;;;;;5041509;28;20041;-71
2022/04/09 08:45:01;;;;;;;23.50;2.22;;;;;;;;;;5041578;28;20063;-71
2022/04/09 08:47:30;;;;;;;16.42;3.03;;;;;;;;;;5044665;28;20048;-71
2022/04/09 08:49:57;;;;;;;14.88;2.47;;;;;;;;;;5040935;28;20130;-72
2022/04/09 08:52:26;;;;;;;11.75;2.30;;;;;;;;;;5040321;28;20141;-72
2022/04/09 08:54:53;;;;;;;14.10;1.40;;;;;;;;;;5040968;28;20056;-72
2022/04/09 08:57:21;;;;;;;8.70;1.10;;;;;;;;;;5043387;28;20044;-72
2022/04/09 08:59:48;;;;;;;7.13;1.25;;;;;;;;;;5047882;28;20055;-72
2022/04/09 09:02:15;;;;;;;11.25;1.75;;;;;;;;;;5042592;28;20060;-72
2022/04/09 09:04:45;;;;;;;7.50;1.45;;;;;;;;;;5041218;28;20507;-72
2022/04/09 09:07:20;;;;;;;16.05;1.92;;;;;;;;;;5040867;28;20041;-72
2022/04/09 09:09:48;;;;;;;13.38;2.15;;;;;;;;;;5038588;28;20053;-72
2022/04/09 09:12:27;;;;;;;9.95;1.98;;;;;;;;;;5044837;28;20546;-72
2022/04/09 09:14:55;;;;;;;14.70;1.98;;;;;;;;;;5041041;28;20137;-72
2022/04/09 09:17:28;;;;;;;7.63;1.50;;;;;;;;;;5040134;28;20049;-72
2022/04/09 09:19:55;;;;;;;7.43;1.23;;;;;;;;;;5038176;28;20139;-72
2022/04/09 09:22:22;;;;;;;7.47;0.98;;;;;;;;;;5036698;28;20057;-72
2022/04/09 09:25:05;;;;;;;6.13;1.00;;;;;;;;;;5046540;28;20048;-72
2022/04/09 09:27:32;;;;;;;4.10;1.08;;;;;;;;;;5046737;28;20049;-72
2022/04/09 09:29:59;;;;;;;5.32;1.00;;;;;;;;;;5040985;28;20049;-72
2022/04/09 09:32:28;;;;;;;8.77;1.23;;;;;;;;;;5046238;28;20056;-72
2022/04/09 09:34:56;;;;;;;11.43;2.05;;;;;;;;;;5036838;28;20729;-72
2022/04/09 09:37:24;;;;;;;8.52;1.70;;;;;;;;;;5038492;28;20045;-72
2022/04/09 09:39:51;;;;;;;11.13;1.95;;;;;;;;;;5047335;28;20045;-72
2022/04/09 09:42:21;;;;;;;8.38;1.58;;;;;;;;;;5043515;28;20063;-71
2022/04/09 09:44:48;;;;;;;10.95;1.75;;;;;;;;;;5049530;28;20056;-71
2022/04/09 09:47:16;;;;;;;15.15;1.80;;;;;;;;;;5056345;28;20052;-71
2022/04/09 09:49:53;;;;;;;12.45;1.55;;;;;;;;;;5047735;28;20055;-71
2022/04/09 09:52:24;;;;;;;13.93;1.55;;;;;;;;;;5056376;28;20441;-71
2022/04/09 09:54:55;;;;;;;16.25;2.00;;;;;;;;;;5049572;28;20928;-71
2022/04/09 09:57:26;;;;;;;9.80;1.42;;;;;;;;;;5052431;28;20056;-71
2022/04/09 09:59:54;;;;;;;9.77;1.45;;;;;;;;;;5045996;28;20403;-71
2022/04/09 10:02:22;;;;;;;11.48;1.55;;;;;;;;;;5048116;28;20385;-71
2022/04/09 10:04:49;;;;;;;11.20;1.27;;;;;;;;;;5051459;28;20565;-71
2022/04/09 10:07:16;;;;;;;8.45;1.38;;;;;;;;;;5047905;28;20091;-71
2022/04/09 10:09:44;;;;;;;9.35;1.15;;;;;;;;;;5046301;28;20056;-71
2022/04/09 10:12:13;;;;;;;8.45;1.65;;;;;;;;;;5054861;28;20061;-71
2022/04/09 10:14:42;;;;;;;6.57;1.42;;;;;;;;;;5044402;28;20055;-71
2022/04/09 10:17:10;;;;;;;11.13;1.58;;;;;;;;;;5042056;28;20081;-71
2022/04/09 10:19:41;;;;;;;7.40;1.35;;;;;;;;;;5045768;28;20064;-71
2022/04/09 10:22:08;;;;;;;4.53;0.73;;;;;;;;;;5043206;28;20045;-71
2022/04/09 10:24:37;;;;;;;6.45;0.95;;;;;;;;;;5044873;28;20668;-71
2022/04/09 10:27:07;;;;;;;5.30;1.02;;;;;;;;;;5043858;28;20044;-71
2022/04/09 10:29:49;;;;;;;5.28;0.98;;;;;;;;;;5047959;28;20491;-71
2022/04/09 10:32:31;;;;;;;7.72;0.93;;;;;;;;;;5045246;28;20054;-71
2022/04/09 10:34:59;;;;;;;6.22;0.98;;;;;;;;;;5041065;28;20166;-71
2022/04/09 10:37:27;;;;;;;10.15;1.10;;;;;;;;;;5048097;28;20044;-71
2022/04/09 10:39:54;;;;;;;5.45;1.20;;;;;;;;;;5050754;28;20381;-71
2022/04/09 10:42:40;;;;;;;9.88;1.58;;;;;;;;;;5041395;28;20114;-71
2022/04/09 10:45:09;;;;;;;12.73;1.60;;;;;;;;;;5043397;28;20083;-71
2022/04/09 10:48:06;;;;;;;8.50;1.20;;;;;;;;;;5044441;28;20052;-71
2022/04/09 10:50:52;;;;;;;11.63;1.42;;;;;;;;;;5047175;28;20053;-71
2022/04/09 10:53:21;;;;;;;11.23;1.65;;;;;;;;;;5045949;28;20071;-71
2022/04/09 10:56:03;;;;;;;6.35;1.17;;;;;;;;;;5040294;28;20451;-71
2022/04/09 10:58:30;;;;;;;13.40;2.15;;;;;;;;;;5043703;28;20514;-71
2022/04/09 11:00:59;;;;;;;13.32;2.00;;;;;;;;;;5045607;28;20057;-71
2022/04/09 11:03:36;;;;;;;10.82;1.42;;;;;;;;;;5040487;28;20056;-71
2022/04/09 11:06:22;;;;;;;4.88;1.05;;;;;;;;;;5041807;28;20130;-71
2022/04/09 11:08:58;;;;;;;3.60;0.82;;;;;;;;;;5047249;28;20560;-71
2022/04/09 11:11:26;;;;;;;5.88;0.63;;;;;;;;;;5036823;28;20929;-71
2022/04/09 11:13:54;;;;;;;4.97;0.90;;;;;;;;;;5048991;28;20491;-71
2022/04/09 11:16:23;;;;;;;1.83;0.47;;;;;;;;;;5043699;28;20053;-71
2022/04/09 11:18:51;;;;;;;5.85;0.80;;;;;;;;;;5044012;28;20110;-71
2022/04/09 11:21:19;;;;;;;4.05;0.82;;;;;;;;;;5046224;28;20122;-71
2022/04/09 11:23:46;;;;;;;2.78;0.50;;;;;;;;;;5045702;28;20110;-71
2022/04/09 11:26:17;;;;;;;3.00;0.32;;;;;;;;;;5044413;28;20053;-71
2022/04/09 11:28:45;;;;;;;3.38;0.45;;;;;;;;;;5039636;28;20139;-71
2022/04/09 11:31:12;;;;;;;3.08;0.50;;;;;;;;;;5037715;28;20107;-72
2022/04/09 11:33:56;;;;;;;5.30;0.70;;;;;;;;;;5039419;28;20049;-72
2022/04/09 11:36:23;;;;;;;5.60;0.88;;;;;;;;;;5045652;28;20135;-71
2022/04/09 11:38:50;;;;;;;8.20;1.02;;;;;;;;;;5042034;28;20049;-71
2022/04/09 11:41:21;;;;;;;9.50;1.25;;;;;;;;;;5040588;28;20056;-71
2022/04/09 11:43:48;;;;;;;5.93;1.25;;;;;;;;;;5045951;28;20519;-71
2022/04/09 11:46:15;;;;;;;5.75;0.98;;;;;;;;;;5043728;28;20209;-71
2022/04/09 11:48:44;;;;;;;5.15;0.88;;;;;;;;;;5045052;28;20060;-71
2022/04/09 11:51:18;;;;;;;8.68;1.30;;;;;;;;;;5043814;28;20059;-71
2022/04/09 11:53:45;;;;;;;7.63;1.02;;;;;;;;;;5042690;28;20057;-71
2022/04/09 11:56:12;;;;;;;8.20;1.05;;;;;;;;;;5039273;28;20053;-70
2022/04/09 11:58:40;;;;;;;6.82;1.15;;;;;;;;;;5044680;28;20049;-70
2022/04/09 12:01:08;;;;;;;8.45;1.27;;;;;;;;;;5046315;28;20102;-70
2022/04/09 12:03:35;;;;;;;4.53;1.00;;;;;;;;;;5046588;28;20051;-69
2022/04/09 12:06:04;;;;;;;7.05;1.35;;;;;;;;;;5047500;28;20053;-69
2022/04/09 12:08:33;;;;;;;8.43;1.45;;;;;;;;;;5045483;28;20041;-69
2022/04/09 12:11:01;;;;;;;8.43;1.30;;;;;;;;;;5043927;28;20102;-69
2022/04/09 12:13:29;;;;;;;8.48;1.77;;;;;;;;;;5042190;28;20114;-69
2022/04/09 12:15:56;;;;;;;8.48;1.73;;;;;;;;;;5038721;28;20120;-69
2022/04/09 12:18:28;;;;;;;7.60;1.83;;;;;;;;;;5041229;28;20060;-69
2022/04/09 12:20:55;;;;;;;7.43;1.70;;;;;;;;;;5046851;28;20045;-69
2022/04/09 12:23:30;;;;;;;7.47;1.38;;;;;;;;;;5036053;28;20091;-69
2022/04/09 12:25:58;;;;;;;8.52;1.23;;;;;;;;;;5047352;28;20114;-69
2022/04/09 12:28:28;;;;;;;9.13;1.35;;;;;;;;;;5041246;28;20055;-69
2022/04/09 12:30:56;;;;;;;6.43;1.30;;;;;;;;;;5041807;28;20495;-69
2022/04/09 12:33:24;;;;;;;9.70;1.33;;;;;;;;;;5048738;28;20054;-69
2022/04/09 12:35:53;;;;;;;15.43;1.50;;;;;;;;;;5044228;28;20060;-69
2022/04/09 12:38:39;;;;;;;8.43;1.20;;;;;;;;;;5043840;28;20049;-69
2022/04/09 12:41:07;;;;;;;3.47;0.70;;;;;;;;;;5046786;28;20114;-69
2022/04/09 12:43:36;;;;;;;3.03;0.85;;;;;;;;;;5042118;28;20064;-69
2022/04/09 12:46:07;;;;;;;6.00;1.17;;;;;;;;;;5035967;28;20815;-69
2022/04/09 12:48:38;;;;;;;7.07;0.90;;;;;;;;;;5042680;28;20051;-69
2022/04/09 12:51:06;;;;;;;9.45;1.23;;;;;;;;;;5042801;28;20135;-69
2022/04/09 12:53:33;;;;;;;8.75;1.38;;;;;;;;;;5042271;28;20071;-69
2022/04/09 12:56:04;;;;;;;7.53;1.27;;;;;;;;;;5041102;28;20057;-69
2022/04/09 12:58:33;;;;;;;7.75;1.20;;;;;;;;;;5040419;28;20070;-69
2022/04/09 13:01:00;;;;;;;3.80;0.70;;;;;;;;;;5038174;28;20093;-69
2022/04/09 13:03:28;;;;;;;7.50;0.93;;;;;;;;;;5042350;28;20049;-69
2022/04/09 13:05:56;;;;;;;3.92;0.73;;;;;;;;;;5041009;28;20531;-69
2022/04/09 13:08:23;;;;;;;5.57;0.80;;;;;;;;;;5043796;28;20066;-69
2022/04/09 13:10:51;;;;;;;6.47;0.95;;;;;;;;;;5045539;28;20053;-69
2022/04/09 13:13:18;;;;;;;5.40;1.27;;;;;;;;;;5045932;28;20411;-69
2022/04/09 13:15:47;;;;;;;4.82;1.00;;;;;;;;;;5044859;28;20142;-69
2022/04/09 13:18:14;;;;;;;6.35;1.30;;;;;;;;;;5042949;28;20064;-69
2022/04/09 13:20:43;;;;;;;5.82;1.10;;;;;;;;;;5039981;28;20059;-70
2022/04/09 13:23:10;;;;;;;8.82;1.55;;;;;;;;;;5045229;28;20057;-69
2022/04/09 13:25:39;;;;;;;14.90;1.95;;;;;;;;;;5041667;28;20048;-69
2022/04/09 13:28:06;;;;;;;5.63;1.33;;;;;;;;;;5040047;28;20072;-71
2022/04/09 13:30:34;;;;;;;13.40;2.20;;;;;;;;;;5043731;28;20392;-72
2022/04/09 13:33:03;;;;;;;10.75;1.83;;;;;;;;;;5040018;28;20060;-72
2022/04/09 13:35:30;;;;;;;8.70;1.20;;;;;;;;;;5040393;28;20053;-72
2022/04/09 13:37:57;;;;;;;10.55;1.88;;;;;;;;;;5038452;28;20055;-72
2022/04/09 13:40:25;;;;;;;9.95;1.38;;;;;;;;;;5038798;28;20119;-72
2022/04/09 13:42:54;;;;;;;6.78;1.70;;;;;;;;;;5043953;28;20389;-72
2022/04/09 13:45:22;;;;;;;13.88;1.85;;;;;;;;;;5037337;28;20285;-70
2022/04/09 13:47:52;;;;;;;11.10;1.63;;;;;;;;;;5039893;28;20057;-70
2022/04/09 13:50:22;;;;;;;10.50;1.52;;;;;;;;;;5042731;28;20053;-70
2022/04/09 13:52:50;;;;;;;10.65;1.80;;;;;;;;;;5039310;28;20449;-70
2022/04/09 13:55:17;;;;;;;10.55;1.95;;;;;;;;;;5044801;28;20049;-70
2022/04/09 13:57:44;;;;;;;8.30;2.00;;;;;;;;;;5035313;28;20596;-70
2022/04/09 14:00:12;;;;;;;10.05;1.40;;;;;;;;;;5045633;28;20063;-70
2022/04/09 14:02:40;;;;;;;15.57;2.28;;;;;;;;;;5039322;28;20078;-70
2022/04/09 14:05:08;;;;;;;10.63;1.75;;;;;;;;;;5040105;28;20080;-70
2022/04/09 14:07:37;;;;;;;13.38;2.20;;;;;;;;;;5043753;28;20399;-71
2022/04/09 14:10:04;;;;;;;9.15;1.30;;;;;;;;;;5035835;28;20516;-70
2022/04/09 14:12:32;;;;;;;11.02;1.58;;;;;;;;;;5040575;28;20056;-70
2022/04/09 14:15:00;;;;;;;13.20;2.10;;;;;;;;;;5039237;28;20060;-70
2022/04/09 14:17:27;;;;;;;8.73;1.60;;;;;;;;;;5043943;28;20508;-70
2022/04/09 14:19:54;;;;;;;8.10;1.75;;;;;;;;;;5038797;28;20067;-70
2022/04/09 14:22:21;;;;;;;11.30;2.00;;;;;;;;;;5042633;28;20698;-70
2022/04/09 14:24:50;;;;;;;9.43;1.67;;;;;;;;;;5042136;28;20538;-70
2022/04/09 14:27:17;;;;;;;9.05;1.60;;;;;;;;;;5040267;28;20053;-70
2022/04/09 14:29:44;;;;;;;8.00;1.30;;;;;;;;;;5043080;28;20106;-70
2022/04/09 14:32:11;;;;;;;7.45;1.40;;;;;;;;;;5043247;28;20061;-70
2022/04/09 14:34:39;;;;;;;8.18;1.50;;;;;;;;;;5043157;28;20045;-70
2022/04/09 14:37:06;;;;;;;11.40;1.80;;;;;;;;;;5042948;28;20499;-71
2022/04/09 14:39:33;;;;;;;8.20;1.52;;;;;;;;;;5042956;28;20048;-71
2022/04/09 14:42:01;;;;;;;9.35;1.83;;;;;;;;;;5048195;28;20106;-71